Aviation Digital Data Service (ADDS)

Output produced by METARs form (1100 UTC 19 February 2019)
found at http://www.aviationweather.gov/metar/data/
 
Forecast for: ZBHH (HUHHOT , CN)
Text: TAF ZBHH 190902Z 1912/2012 06004MPS CAVOK TX02/2007Z TNM16/23Z
Forecast period: 1200 UTC 19 February 2019 to 1200 UTC 20 February 2019
Forecast type: FROM: standard forecast or significant change
Winds: from the ENE (60 degrees) at 9 MPH (8 knots; 4.1 m/s)
Visibility: 6 or more miles 10+ km)
Ceiling: unknown
Clouds: missing
Weather: no significant weather forecast for this period
Text: TEMPO 1922/2002 1000 BR
Forecast period: 2200 UTC 19 February 2019 to 0200 UTC 20 February 2019
Forecast type: TEMPORARY: The following changes expected for less than half the time period
Visibility: 0.62 miles (1.00 km)
Ceiling: unknown
Clouds: missing
Weather: BR  (mist)